Latest Weather Observations for Darwin Airport

IDD60801

Issued at 11:31 pm CST Friday 24 March 2017 (issued every 30 minutes, with the page automatically refreshed every 10 minutes)

About weather observations | Map of weather stations | Latest weather observations for NT | Other Formats
Station Details ID: 014015 Name: DARWIN AIRPORT Lat: -12.42 Lon: 130.89 Height: 30.4 m
Data from the previous 72 hours. | See also: Recent months at Darwin Airport
Date/Time
CST
Temp
°C
App
Temp
°C
Dew
Point
°C
Rel
Hum
%
Delta-T
°C
Wind Press
QNH
hPa
Press
MSL
hPa
Rain since
9am
mm
Dir  Spd
km/h
Gust
km/h
Spd
kts
Gust
kts
24/11:00pm 26.4 30.4 25.1 92 0.9 SSE 13 22 7 12 1008.8 1008.5 15.4
24/10:30pm 26.5 31.1 25.4 94 0.8 SSE 11 17 6 9 1008.7 1008.4 15.4
24/10:00pm 26.6 32.5 25.9 96 0.5 SSE 6 7 3 4 1008.6 1008.3 15.4
24/09:30pm 26.6 33.6 25.9 96 0.5 CALM 0 0 0 0 1008.2 1007.9 15.4
24/09:00pm 26.4 33.3 25.7 96 0.5 CALM 0 0 0 0 1008.0 1007.7 15.4
24/08:30pm 26.1 31.7 25.4 96 0.5 N 6 7 3 4 1007.4 1007.1 15.4
24/08:00pm 25.9 31.2 25.0 95 0.6 NNE 6 9 3 5 1006.9 1006.6 15.4
24/07:30pm 25.8 31.1 24.9 95 0.6 NNE 6 9 3 5 1006.3 1006.0 15.2
24/07:25pm 25.9 31.2 24.9 94 0.7 N 6 9 3 5 1006.4 1006.1 15.2
24/07:00pm 27.5 31.7 25.4 88 1.5 NNE 13 32 7 17 1006.4 1006.1 12.6
24/06:57pm 27.8 33.0 25.7 88 1.5 N 9 19 5 10 1006.3 1006.0 12.6
24/06:30pm 28.2 34.0 26.1 88 1.5 NNW 7 11 4 6 1005.9 1005.6 12.6
24/06:00pm 28.6 34.7 25.6 84 2.1 N 4 6 2 3 1006.1 1005.8 12.6
24/05:30pm 28.3 34.2 25.9 87 1.7 NNE 6 7 3 4 1005.6 1005.3 12.6
24/05:00pm 28.1 33.5 25.1 84 2.1 S 6 7 3 4 1005.4 1005.1 12.6
24/04:30pm 27.5 32.4 24.3 83 2.2 SE 6 9 3 5 1004.8 1004.5 12.6
24/04:00pm 27.4 32.5 24.1 82 2.3 S 4 7 2 4 1005.8 1005.5 12.6
24/03:30pm 26.4 29.5 24.2 88 1.5 SSE 15 20 8 11 1005.9 1005.6 12.4
24/03:09pm 26.8 29.9 25.4 92 1.0 SSE 19 24 10 13 1006.3 1006.0 4.2
24/03:00pm 27.5 32.6 24.9 86 1.8 S 7 19 4 10 1006.0 1005.7 0.8
24/02:30pm 30.6 36.1 24.6 70 4.2 NW 4 7 2 4 1006.1 1005.8 0.4
24/02:00pm 28.3 32.5 25.9 87 1.7 NNW 15 20 8 11 1006.5 1006.2 0.4
24/01:50pm 29.5 34.2 25.0 77 3.2 WSW 9 13 5 7 1006.5 1006.2 0.2
24/01:46pm 30.0 34.3 24.9 74 3.6 WSW 11 19 6 10 1006.2 1005.9 0.2
24/01:30pm 30.7 34.3 24.4 69 4.4 WNW 13 20 7 11 1006.8 1006.5 0.2
24/01:00pm 31.3 35.4 25.2 70 4.3 WNW 13 17 7 9 1007.5 1007.2 0.2
24/12:30pm 31.4 33.8 23.6 63 5.4 WNW 17 19 9 10 1008.0 1007.7 0.2
24/12:00pm 31.7 36.1 23.5 62 5.7 NE 6 9 3 5 1008.4 1008.1 0.2
24/11:30am 31.0 35.6 24.1 66 4.8 ENE 7 11 4 6 1009.1 1008.8 0.2
24/11:00am 30.4 35.1 24.9 72 3.9 E 9 15 5 8 1009.4 1009.1 0.2
24/10:30am 30.0 35.3 25.2 75 3.4 E 7 11 4 6 1009.8 1009.6 0.2
24/10:00am 29.2 33.8 24.8 77 3.1 ESE 9 15 5 8 1009.7 1009.5 0.0
24/09:30am 28.6 33.5 24.6 79 2.8 SE 7 9 4 5 1009.7 1009.5 0.0
24/09:00am 28.0 32.9 24.7 82 2.3 SSE 7 11 4 6 1009.7 1009.5 17.0
24/08:30am 27.2 32.0 24.5 85 1.9 SSE 7 9 4 5 1009.3 1009.0 17.0
24/08:00am 25.9 30.9 23.9 89 1.4 SE 4 7 2 4 1009.0 1008.7 17.0
24/07:30am 25.2 29.9 23.9 92 0.9 SE 6 7 3 4 1008.7 1008.4 17.0
24/07:00am 24.9 29.4 23.9 94 0.7 SE 7 9 4 5 1008.3 1008.0 17.0
24/06:30am 24.9 29.2 23.7 93 0.8 SE 7 7 4 4 1008.1 1007.8 17.0
24/06:00am 24.8 29.3 23.9 95 0.6 E 7 7 4 4 1008.0 1007.7 17.0
24/05:30am 25.0 30.1 24.0 94 0.7 SE 4 6 2 3 1008.2 1007.9 17.0
24/05:00am 25.0 29.5 24.0 94 0.7 SSE 7 9 4 5 1007.9 1007.6 17.0
24/04:30am 25.2 29.9 24.0 93 0.8 SSE 6 9 3 5 1007.8 1007.5 17.0
24/04:00am 25.2 30.2 23.9 92 0.9 W 4 6 2 3 1008.2 1007.9 17.0
24/03:30am 24.9 29.4 23.7 93 0.8 SW 6 7 3 4 1008.3 1008.0 17.0
24/03:00am 25.1 29.5 23.8 92 0.9 ESE 7 9 4 5 1008.0 1007.7 17.0
24/02:30am 25.1 29.4 23.6 91 1.0 ESE 7 9 4 5 1007.9 1007.6 17.0
24/02:00am 25.1 29.3 23.5 91 1.1 E 7 9 4 5 1008.3 1008.0 17.0
24/01:30am 24.8 27.9 23.5 92 0.9 E 13 19 7 10 1008.2 1007.9 17.0
24/01:00am 24.6 28.0 23.3 92 0.9 ENE 11 15 6 8 1008.6 1008.3 17.0
24/12:30am 24.6 28.5 23.0 91 1.1 E 7 11 4 6 1008.8 1008.5 17.0
24/12:00am 24.7 28.5 22.8 89 1.3 ESE 7 11 4 6 1009.3 1009.0 17.0
 
Date/Time
CST
Temp
°C
App
Temp
°C
Dew
Point
°C
Rel
Hum
%
Delta-T
°C
Wind Press
QNH
hPa
Press
MSL
hPa
Rain since
9am
mm
Dir  Spd
km/h
Gust
km/h
Spd
kts
Gust
kts
23/11:30pm 25.0 27.6 22.6 86 1.6 SSE 13 20 7 11 1009.6 1009.4 17.0
23/11:00pm 25.1 28.0 22.4 85 1.8 SSE 11 17 6 9 1009.9 1009.7 17.0
23/10:30pm 25.7 27.8 23.1 85 1.8 SSE 17 22 9 12 1010.2 1010.0 17.0
23/10:00pm 25.7 28.8 23.5 88 1.5 SSE 13 19 7 10 1009.9 1009.7 17.0
23/09:30pm 25.8 27.6 23.3 86 1.7 SE 19 28 10 15 1010.1 1009.9 17.0
23/09:00pm 26.6 31.2 24.1 86 1.7 SSE 7 13 4 7 1009.2 1008.9 17.0
23/08:30pm 26.9 31.3 24.5 87 1.7 S 9 11 5 6 1008.8 1008.5 17.0
23/08:00pm 26.9 30.6 24.5 87 1.7 S 13 17 7 9 1008.7 1008.4 17.0
23/07:30pm 26.9 29.7 24.3 86 1.8 S 17 20 9 11 1008.3 1008.0 17.0
23/07:00pm 27.5 32.3 25.1 87 1.7 SW 9 13 5 7 1007.5 1007.2 17.0
23/06:30pm 28.2 32.2 25.1 83 2.2 WSW 13 19 7 10 1007.0 1006.7 17.0
23/06:00pm 28.8 32.5 25.1 80 2.6 WSW 15 20 8 11 1006.8 1006.5 17.0
23/05:30pm 28.6 31.6 25.2 82 2.4 WSW 19 24 10 13 1007.1 1006.8 17.0
23/05:00pm 28.8 32.1 25.1 80 2.6 WSW 17 20 9 11 1006.5 1006.2 17.0
23/04:30pm 29.2 32.5 25.7 81 2.5 W 19 26 10 14 1006.6 1006.3 17.0
23/04:00pm 29.7 33.3 25.6 78 2.9 W 17 20 9 11 1006.9 1006.6 17.0
23/03:30pm 27.9 34.2 25.9 89 1.4 WNW 4 11 2 6 1006.7 1006.4 17.0
23/03:15pm 27.9 33.2 25.8 88 1.5 N 9 15 5 8 1007.0 1006.7 14.8
23/03:09pm 30.0 34.1 24.6 73 3.8 NNW 11 15 6 8 1007.0 1006.7 13.2
23/03:00pm 30.3 33.7 24.0 69 4.4 NNW 13 17 7 9 1007.1 1006.8 13.2
23/02:30pm 31.4 36.5 24.6 67 4.8 WNW 6 11 3 6 1007.4 1007.1 13.2
23/02:00pm 30.7 34.9 24.7 70 4.2 WNW 11 15 6 8 1007.7 1007.4 13.2
23/01:30pm 30.2 34.1 24.3 70 4.1 WNW 11 20 6 11 1008.2 1007.9 13.2
23/01:00pm 29.1 32.2 24.2 75 3.4 NW 15 22 8 12 1008.8 1008.5 13.2
23/12:30pm 30.1 33.3 25.0 74 3.6 WNW 17 22 9 12 1009.3 1009.0 13.2
23/12:00pm 30.1 35.3 23.6 68 4.5 SSE 2 7 1 4 1009.8 1009.6 13.2
23/11:30am 29.3 34.3 23.8 72 3.8 ESE 4 7 2 4 1010.1 1009.9 13.2
23/11:00am 28.1 32.7 23.8 77 3.0 SSW 6 7 3 4 1010.4 1010.2 13.0
23/10:30am 26.3 30.8 25.2 94 0.8 WSW 11 13 6 7 1011.0 1010.8 13.0
23/10:21am 26.0 30.7 25.0 94 0.7 SW 9 9 5 5 1011.1 1010.9 13.0
23/10:00am 25.3 30.0 24.9 98 0.3 WNW 9 13 5 7 1011.2 1011.0 9.2
23/09:57am 25.3 29.6 24.9 98 0.3 W 11 17 6 9 1011.2 1011.0 7.2
23/09:40am 25.9 29.3 24.6 92 0.9 NW 15 20 8 11 1011.2 1011.0 0.2
23/09:34am 26.3 30.0 24.6 90 1.2 NW 13 20 7 11 1010.9 1010.7 0.2
23/09:30am 26.9 31.2 24.9 89 1.4 NW 11 15 6 8 1010.9 1010.7 0.0
23/09:00am 27.6 33.0 25.5 88 1.5 ENE 7 11 4 6 1010.6 1010.4 20.0
23/08:30am 27.2 32.3 25.6 91 1.1 ENE 9 11 5 6 1010.0 1009.8 20.0
23/08:00am 26.9 32.6 25.6 93 0.9 E 6 6 3 3 1009.6 1009.4 20.0
23/07:30am 26.1 32.4 25.4 96 0.5 NE 2 4 1 2 1009.4 1009.1 20.0
23/07:00am 25.6 31.7 25.0 96 0.4 ESE 2 4 1 2 1009.0 1008.7 20.0
23/06:30am 25.5 31.1 24.9 96 0.4 NE 4 7 2 4 1008.8 1008.5 20.0
23/06:00am 25.4 30.6 24.8 96 0.4 ENE 6 7 3 4 1008.4 1008.1 20.0
23/05:30am 25.6 30.9 24.9 96 0.5 N 6 7 3 4 1008.2 1007.9 19.8
23/05:00am 25.7 30.8 25.0 96 0.5 NE 7 11 4 6 1008.1 1007.8 19.2
23/04:30am 25.6 30.7 25.0 96 0.4 E 7 9 4 5 1008.1 1007.8 19.0
23/04:00am 25.7 31.4 25.0 96 0.5 E 4 7 2 4 1008.3 1008.0 19.0
23/03:30am 25.8 31.6 25.1 96 0.5 E 4 6 2 3 1008.4 1008.1 19.0
23/03:00am 25.7 31.4 25.0 96 0.5 E 4 6 2 3 1008.4 1008.1 19.0
23/02:30am 25.8 31.4 24.8 94 0.7 E 4 4 2 2 1008.4 1008.1 19.0
23/02:00am 25.8 31.1 24.9 95 0.6 E 6 6 3 3 1008.7 1008.4 19.0
23/01:30am 26.0 31.4 25.1 95 0.6 E 6 7 3 4 1009.1 1008.8 19.0
23/01:00am 26.1 31.9 25.2 95 0.6 E 4 6 2 3 1009.6 1009.4 19.0
23/12:30am 26.1 32.8 25.4 96 0.5 CALM 0 0 0 0 1010.0 1009.8 19.0
23/12:00am 26.2 32.8 25.3 95 0.6 CALM 0 0 0 0 1010.0 1009.8 19.0
 
Date/Time
CST
Temp
°C
App
Temp
°C
Dew
Point
°C
Rel
Hum
%
Delta-T
°C
Wind Press
QNH
hPa
Press
MSL
hPa
Rain since
9am
mm
Dir  Spd
km/h
Gust
km/h
Spd
kts
Gust
kts
22/11:30pm 26.4 33.0 25.3 94 0.8 CALM 0 0 0 0 1010.2 1010.0 19.0
22/11:00pm 26.5 32.7 25.2 92 0.9 ESE 2 4 1 2 1010.2 1010.0 19.0
22/10:30pm 26.4 32.3 25.3 94 0.8 SSE 4 6 2 3 1010.5 1010.3 19.0
22/10:00pm 26.4 32.0 24.8 91 1.1 ESE 4 6 2 3 1010.4 1010.2 19.0
22/09:30pm 26.4 32.7 25.3 94 0.8 SSE 2 6 1 3 1009.9 1009.7 19.0
22/09:00pm 26.6 33.2 25.2 92 1.0 CALM 0 2 0 1 1009.0 1008.7 19.0
22/08:30pm 27.2 32.4 24.8 87 1.7 SW 6 7 3 4 1008.9 1008.6 19.0
22/08:00pm 27.2 32.1 24.3 84 2.0 W 6 7 3 4 1008.7 1008.4 19.0
22/07:30pm 27.3 31.9 24.1 83 2.2 SW 7 7 4 4 1008.5 1008.2 19.0
22/07:00pm 27.2 32.1 24.6 86 1.8 W 7 9 4 5 1008.1 1007.8 19.0
22/06:30pm 27.5 32.3 24.5 84 2.1 W 7 11 4 6 1007.6 1007.3 19.0
22/06:00pm 27.8 32.6 24.5 82 2.3 WSW 7 9 4 5 1007.4 1007.1 19.0
22/05:30pm 28.0 33.1 24.6 82 2.4 W 6 9 3 5 1007.3 1007.0 19.0
22/05:00pm 28.0 32.3 24.3 80 2.6 WSW 9 13 5 7 1007.2 1006.9 19.0
22/04:30pm 27.9 31.8 24.2 80 2.6 W 11 13 6 7 1007.0 1006.7 19.0
22/04:00pm 27.8 31.0 23.7 78 2.8 W 13 19 7 10 1007.0 1006.7 19.0
22/03:30pm 27.6 30.0 23.7 79 2.7 W 17 22 9 12 1007.2 1006.9 19.0
22/03:00pm 27.4 29.8 24.2 83 2.2 W 19 24 10 13 1007.6 1007.3 19.0
22/02:30pm 27.1 30.0 25.1 89 1.4 WNW 19 24 10 13 1008.0 1007.7 19.0
22/02:00pm 26.7 29.8 25.4 93 0.9 WNW 19 24 10 13 1008.4 1008.1 19.0
22/01:30pm 25.6 29.1 24.9 96 0.5 WNW 15 19 8 10 1009.0 1008.7 19.0
22/01:08pm 25.6 29.0 25.3 98 0.2 NW 17 20 9 11 1009.5 1009.3 14.6
22/01:00pm 26.0 29.1 25.7 98 0.2 NW 20 26 11 14 1009.4 1009.1 13.0
22/12:46pm 26.3 29.6 26.0 98 0.2 WNW 20 28 11 15 1009.4 1009.1 13.0
22/12:36pm 25.8 28.3 25.4 98 0.3 NW 22 28 12 15 1009.2 1008.9 13.0
22/12:30pm 25.4 27.5 25.3 99 0.1 N 24 30 13 16 1009.2 1008.9 13.0
22/12:27pm 24.9 26.9 24.6 98 0.2 N 22 30 12 16 1009.4 1009.1 12.2
22/12:24pm 25.4 28.1 25.1 98 0.2 NNW 20 30 11 16 1009.3 1009.0 5.4
22/12:22pm 26.4 29.2 25.3 94 0.8 NNW 20 30 11 16 1009.4 1009.1 0.6
22/12:19pm 27.1 29.6 24.8 87 1.6 NW 20 28 11 15 1009.3 1009.0 0.2
22/12:00pm 28.6 32.4 24.7 79 2.7 WNW 13 17 7 9 1009.5 1009.3 0.2
22/11:30am 29.9 35.0 24.0 70 4.1 ESE 4 9 2 5 1010.2 1010.0 0.2
22/11:00am 29.2 33.1 24.2 74 3.5 ESE 11 17 6 9 1010.3 1010.1 0.2
22/10:30am 29.0 33.9 24.6 77 3.1 SSE 7 11 4 6 1010.5 1010.3 0.0
22/10:00am 29.0 34.1 25.0 79 2.8 SSE 7 11 4 6 1010.7 1010.5 0.0
22/09:30am 28.8 33.2 25.1 80 2.6 SE 11 15 6 8 1010.4 1010.2 0.0
22/09:00am 27.6 32.3 24.9 85 1.9 SSE 9 13 5 7 1010.3 1010.1 7.0
22/08:30am 26.9 31.1 24.7 88 1.5 SE 11 13 6 7 1010.0 1009.8 7.0
22/08:00am 26.3 31.0 25.0 92 0.9 SE 9 11 5 6 1009.2 1008.9 7.0
22/07:30am 25.8 31.0 25.1 96 0.5 SE 7 9 4 5 1009.1 1008.8 7.0
22/07:00am 25.5 31.1 24.8 96 0.5 SE 4 7 2 4 1008.9 1008.6 7.0
22/06:30am 25.4 31.7 24.7 96 0.5 CALM 0 0 0 0 1008.9 1008.6 7.0
22/06:00am 25.5 30.9 24.5 94 0.7 SE 4 6 2 3 1008.7 1008.4 7.0
22/05:30am 25.8 30.5 23.9 89 1.3 SSW 6 9 3 5 1008.2 1007.9 7.0
22/05:00am 25.9 30.4 23.9 89 1.4 SSW 7 9 4 5 1007.8 1007.5 7.0
22/04:30am 25.8 31.0 24.2 91 1.1 WSW 4 6 2 3 1007.5 1007.2 7.0
22/04:00am 26.0 30.0 24.4 91 1.1 SW 11 17 6 9 1007.8 1007.5 7.0
22/03:30am 26.2 31.3 24.9 92 0.9 SW 7 9 4 5 1008.3 1008.0 7.0
22/03:00am 26.1 30.8 25.0 94 0.8 WSW 9 11 5 6 1008.3 1008.0 7.0
22/02:30am 26.2 31.5 24.9 92 0.9 WSW 6 7 3 4 1008.7 1008.4 7.0
22/02:00am 25.9 31.9 24.9 94 0.7 SW 2 6 1 3 1009.1 1008.8 7.0
22/01:30am 25.9 32.5 25.2 96 0.5 CALM 0 0 0 0 1009.4 1009.1 7.0
22/01:00am 26.1 31.6 24.7 92 1.0 SSW 4 6 2 3 1009.5 1009.3 7.0
22/12:30am 26.1 30.9 24.4 90 1.2 WSW 7 9 4 5 1009.5 1009.3 7.0
22/12:00am 26.1 31.1 24.5 91 1.1 W 6 7 3 4 1009.7 1009.5 7.0

Other Formats:

Comma delimited format used in spreadsheet applications
http://www.bom.gov.au/fwo/IDD60801/IDD60801.94120.axf

JavaScript Object Notation format (JSON) in row-major order
http://www.bom.gov.au/fwo/IDD60801/IDD60801.94120.json